Terminal Aerodrome Forecast
Issued by NWS Memphis, TN

Home | Current Version | Previous Version | Text Only | Print | Product List | Glossary On
Versions: 1 2 3 4 5 6 7 8 9 10 11 12 13 14 15 16 17 18 19 20 21 22 23 24 25
000
FTUS44 KMEG 260526
TAFJBR
TAF
KJBR 260526Z 2606/2706 16012KT P6SM SCT020 OVC035
      TEMPO 2606/2607 BKN020
     FM260700 17010KT P6SM VCTS SCT025CB OVC040
      TEMPO 2608/2611 3SM TSRA BR OVC025CB
     FM261100 18012KT 6SM -RA BR OVC020
     FM261400 20015G22KT P6SM OVC025
     FM261800 20015G22KT P6SM BKN035
     FM262200 20012KT P6SM SCT050
     FM270100 17005KT P6SM SCT050=

USA.gov is the U.S. government's official web portal to all federal, state and local government web resources and services.